Time;durP1;ratioP1;P1;durP2;ratioP2;P2;SDS_P1;SDS_P2;PMS_P1;PMS_P2;Temp;Humidity;BMP_temperature;BMP_pressure;BME280_temperature;BME280_humidity;BME280_pressure;Samples;Min_cycle;Max_cycle;Signal;HPM_P1;HPM_P2
2023/10/07 00:01:24;;;;;;;3.45;3.15;;;;;;;;;;5059678;28;20527;-59
2023/10/07 00:03:53;;;;;;;2.85;2.65;;;;;;;;;;5058706;28;20063;-59
2023/10/07 00:06:27;;;;;;;3.08;2.50;;;;;;;;;;5061240;28;20063;-59
2023/10/07 00:08:58;;;;;;;3.58;3.20;;;;;;;;;;5057674;28;20883;-60
2023/10/07 00:11:28;;;;;;;3.10;2.90;;;;;;;;;;5061122;28;20036;-60
2023/10/07 00:13:57;;;;;;;3.25;2.95;;;;;;;;;;5056476;28;20041;-59
2023/10/07 00:16:25;;;;;;;3.40;3.10;;;;;;;;;;5059797;28;20066;-59
2023/10/07 00:18:55;;;;;;;5.30;2.58;;;;;;;;;;5061001;28;20150;-60
2023/10/07 00:21:26;;;;;;;2.92;2.72;;;;;;;;;;5056180;28;20063;-62
2023/10/07 00:23:57;;;;;;;3.05;2.80;;;;;;;;;;5054968;28;20517;-62
2023/10/07 00:26:27;;;;;;;2.50;2.30;;;;;;;;;;5059865;28;20044;-59
2023/10/07 00:29:00;;;;;;;3.03;2.53;;;;;;;;;;5058562;28;20048;-59
2023/10/07 00:31:33;;;;;;;2.90;2.70;;;;;;;;;;5060466;28;20354;-59
2023/10/07 00:34:12;;;;;;;2.55;2.45;;;;;;;;;;5057049;28;20060;-59
2023/10/07 00:36:47;;;;;;;2.75;2.55;;;;;;;;;;5058645;28;20520;-60
2023/10/07 00:39:21;;;;;;;2.90;2.60;;;;;;;;;;5058037;28;20044;-59
2023/10/07 00:41:54;;;;;;;2.80;2.60;;;;;;;;;;5057839;28;20139;-59
2023/10/07 00:44:29;;;;;;;3.17;2.70;;;;;;;;;;5059313;28;20044;-59
2023/10/07 00:47:12;;;;;;;4.35;2.55;;;;;;;;;;5057561;28;20134;-59
2023/10/07 00:49:42;;;;;;;2.95;2.60;;;;;;;;;;5064507;28;20040;-59
2023/10/07 00:52:25;;;;;;;2.60;2.40;;;;;;;;;;5062258;28;20049;-60
2023/10/07 00:54:59;;;;;;;2.50;2.30;;;;;;;;;;5058797;28;20412;-59
2023/10/07 00:57:35;;;;;;;2.90;2.63;;;;;;;;;;5066273;28;20052;-59
2023/10/07 01:00:30;;;;;;;3.17;2.90;;;;;;;;;;5059300;28;20121;-59
2023/10/07 01:03:13;;;;;;;2.80;2.60;;;;;;;;;;5063812;28;20383;-60
2023/10/07 01:05:53;;;;;;;3.40;2.80;;;;;;;;;;5062410;28;20045;-59
2023/10/07 01:08:27;;;;;;;2.70;2.50;;;;;;;;;;5065563;28;20129;-59
2023/10/07 01:11:07;;;;;;;3.65;2.80;;;;;;;;;;5065057;28;20051;-59
2023/10/07 01:13:36;;;;;;;4.47;2.90;;;;;;;;;;5061629;28;20611;-60
2023/10/07 01:16:07;;;;;;;3.05;2.78;;;;;;;;;;5065064;28;20123;-59
2023/10/07 01:18:39;;;;;;;2.90;2.70;;;;;;;;;;5059381;28;20057;-60
2023/10/07 01:21:11;;;;;;;2.90;2.70;;;;;;;;;;5061298;28;20139;-59
2023/10/07 01:23:44;;;;;;;2.78;2.58;;;;;;;;;;5063758;28;20054;-59
2023/10/07 01:26:23;;;;;;;2.85;2.58;;;;;;;;;;5063152;28;20055;-59
2023/10/07 01:28:57;;;;;;;2.92;2.72;;;;;;;;;;5062143;28;20053;-59
2023/10/07 01:31:29;;;;;;;3.10;2.83;;;;;;;;;;5061100;28;20044;-59
2023/10/07 01:34:01;;;;;;;2.67;2.47;;;;;;;;;;5059720;28;20049;-60
2023/10/07 01:36:30;;;;;;;2.90;2.70;;;;;;;;;;5060658;28;20045;-59
2023/10/07 01:39:01;;;;;;;2.47;2.30;;;;;;;;;;5061736;28;20053;-59
2023/10/07 01:41:31;;;;;;;2.78;2.58;;;;;;;;;;5060445;28;20044;-60
2023/10/07 01:43:59;;;;;;;2.53;2.33;;;;;;;;;;5057943;28;21301;-60
2023/10/07 01:46:38;;;;;;;2.78;2.58;;;;;;;;;;5062630;28;20068;-59
2023/10/07 01:49:11;;;;;;;2.90;2.70;;;;;;;;;;5061121;28;20408;-60
2023/10/07 01:51:43;;;;;;;2.63;2.42;;;;;;;;;;5063052;28;20060;-59
2023/10/07 01:54:15;;;;;;;2.20;2.08;;;;;;;;;;5061010;28;20045;-58
2023/10/07 01:56:43;;;;;;;2.40;2.20;;;;;;;;;;5061306;28;20048;-59
2023/10/07 01:59:18;;;;;;;2.80;2.60;;;;;;;;;;5057764;28;20188;-60
2023/10/07 02:01:51;;;;;;;;;;;;;;;;;;5064073;28;20114;-59
2023/10/07 02:04:26;;;;;;;2.30;2.10;;;;;;;;;;5059343;28;19928;-60
2023/10/07 02:06:56;;;;;;;2.97;2.78;;;;;;;;;;5062372;28;20045;-60
2023/10/07 02:09:27;;;;;;;2.90;2.70;;;;;;;;;;5062385;28;20163;-60
2023/10/07 02:11:56;;;;;;;2.30;2.20;;;;;;;;;;5062001;28;20040;-60
2023/10/07 02:14:25;;;;;;;2.80;2.60;;;;;;;;;;5062013;28;20080;-60
2023/10/07 02:16:56;;;;;;;3.15;2.85;;;;;;;;;;5064345;28;20050;-60
2023/10/07 02:19:29;;;;;;;2.60;2.40;;;;;;;;;;5060310;28;20118;-60
2023/10/07 02:21:59;;;;;;;2.67;2.47;;;;;;;;;;5064965;28;20689;-60
2023/10/07 02:24:30;;;;;;;2.53;2.40;;;;;;;;;;5059308;28;20047;-60
2023/10/07 02:27:00;;;;;;;3.05;2.78;;;;;;;;;;5063616;28;20106;-61
2023/10/07 02:29:29;;;;;;;2.53;2.42;;;;;;;;;;5060273;28;20048;-60
2023/10/07 02:32:12;;;;;;;2.60;2.40;;;;;;;;;;5060844;28;20094;-60
2023/10/07 02:34:51;;;;;;;2.90;2.70;;;;;;;;;;5059556;28;20135;-59
2023/10/07 02:37:21;;;;;;;2.78;2.58;;;;;;;;;;5062173;28;20559;-60
2023/10/07 02:39:56;;;;;;;2.20;2.10;;;;;;;;;;5057548;28;20045;-60
2023/10/07 02:42:28;;;;;;;;;;;;;;;;;;5063833;28;20045;-60
2023/10/07 02:45:28;;;;;;;2.33;2.20;;;;;;;;;;5059859;28;19924;-60
2023/10/07 02:47:53;;;;;;;2.58;2.47;;;;;;;;;;5055696;28;20103;-61
2023/10/07 02:50:25;;;;;;;3.33;2.72;;;;;;;;;;5060593;28;20049;-59
2023/10/07 02:52:55;;;;;;;2.67;2.47;;;;;;;;;;5063797;28;20044;-60
2023/10/07 02:55:38;;;;;;;2.40;2.28;;;;;;;;;;5057176;28;20051;-60
2023/10/07 02:58:07;;;;;;;2.92;2.72;;;;;;;;;;5056317;28;20057;-60
2023/10/07 03:00:38;;;;;;;2.40;2.30;;;;;;;;;;5058406;28;20083;-60
2023/10/07 03:03:32;;;;;;;2.80;2.60;;;;;;;;;;5061054;28;20053;-59
2023/10/07 03:06:00;;;;;;;2.80;2.60;;;;;;;;;;5060316;28;20056;-60
2023/10/07 03:08:47;;;;;;;2.28;2.17;;;;;;;;;;5058653;28;20081;-60
2023/10/07 03:11:22;;;;;;;2.60;2.47;;;;;;;;;;5057416;28;20064;-60
2023/10/07 03:13:56;;;;;;;2.63;2.42;;;;;;;;;;5054342;28;20056;-60
2023/10/07 03:16:28;;;;;;;2.70;2.53;;;;;;;;;;5060918;28;20059;-60
2023/10/07 03:19:06;;;;;;;3.10;2.85;;;;;;;;;;5058426;28;20379;-59
2023/10/07 03:24:28;;;;;;;2.88;2.67;;;;;;;;;;5049591;28;20064;-59
2023/10/07 03:27:05;;;;;;;3.00;2.80;;;;;;;;;;5058027;28;20049;-59
2023/10/07 03:29:37;;;;;;;2.65;2.45;;;;;;;;;;5061245;28;20127;-59
2023/10/07 03:32:12;;;;;;;3.03;2.53;;;;;;;;;;5059967;28;20463;-60
2023/10/07 03:34:45;;;;;;;3.00;2.80;;;;;;;;;;5059148;28;20040;-60
2023/10/07 03:37:18;;;;;;;2.95;2.75;;;;;;;;;;5061505;28;20448;-60
2023/10/07 03:40:01;;;;;;;2.92;2.72;;;;;;;;;;5059831;28;20132;-61
2023/10/07 03:42:31;;;;;;;6.88;2.90;;;;;;;;;;5063157;28;20106;-59
2023/10/07 03:45:00;;;;;;;2.72;2.53;;;;;;;;;;5059788;28;20142;-60
2023/10/07 03:47:32;;;;;;;2.78;2.58;;;;;;;;;;5059118;28;20429;-60
2023/10/07 03:50:20;;;;;;;2.70;2.50;;;;;;;;;;5059363;28;20044;-60
2023/10/07 03:52:50;;;;;;;2.53;2.35;;;;;;;;;;5061451;28;20509;-60
2023/10/07 03:55:19;;;;;;;2.30;2.20;;;;;;;;;;5058818;28;20444;-60
2023/10/07 03:57:49;;;;;;;2.60;2.42;;;;;;;;;;5059156;28;20040;-60
2023/10/07 04:00:18;;;;;;;2.70;2.50;;;;;;;;;;5057893;28;20084;-61
2023/10/07 04:02:47;;;;;;;3.03;2.63;;;;;;;;;;5059350;28;20578;-60
2023/10/07 04:05:26;;;;;;;3.05;2.85;;;;;;;;;;5057795;28;20059;-60
2023/10/07 04:07:54;;;;;;;3.17;2.97;;;;;;;;;;5063418;28;20045;-60
2023/10/07 04:10:31;;;;;;;2.80;2.60;;;;;;;;;;5056729;28;20048;-59
2023/10/07 04:13:01;;;;;;;2.95;2.75;;;;;;;;;;5063324;28;20248;-59
2023/10/07 04:15:30;;;;;;;2.72;2.53;;;;;;;;;;5059154;28;20490;-59
2023/10/07 04:18:00;;;;;;;3.00;2.80;;;;;;;;;;5063335;28;20509;-60
2023/10/07 04:20:50;;;;;;;2.80;2.60;;;;;;;;;;5060108;28;20045;-58
2023/10/07 04:23:24;;;;;;;2.80;2.60;;;;;;;;;;5065078;28;20065;-61
2023/10/07 04:25:55;;;;;;;3.50;3.20;;;;;;;;;;5064151;28;20039;-58
2023/10/07 04:28:26;;;;;;;2.70;2.50;;;;;;;;;;5061626;28;20311;-59
2023/10/07 04:30:55;;;;;;;2.78;2.58;;;;;;;;;;5059274;28;20129;-59
2023/10/07 04:33:39;;;;;;;2.72;2.53;;;;;;;;;;5062539;28;21100;-59
2023/10/07 04:36:12;;;;;;;3.70;2.50;;;;;;;;;;5061867;28;20041;-60
2023/10/07 04:38:52;;;;;;;2.97;2.78;;;;;;;;;;5062604;28;20136;-59
2023/10/07 04:41:36;;;;;;;2.80;2.60;;;;;;;;;;5063980;28;20495;-58
2023/10/07 04:46:57;;;;;;;3.10;2.80;;;;;;;;;;5040027;28;20087;-59
2023/10/07 04:49:36;;;;;;;2.92;2.70;;;;;;;;;;5021410;28;20045;-58
2023/10/07 04:52:07;;;;;;;2.90;2.70;;;;;;;;;;5021838;28;20049;-59
2023/10/07 04:54:38;;;;;;;2.72;2.28;;;;;;;;;;5022333;28;20049;-58
2023/10/07 04:57:17;;;;;;;2.80;2.60;;;;;;;;;;5022378;28;20606;-58
2023/10/07 04:59:45;;;;;;;2.83;2.58;;;;;;;;;;5019806;28;20052;-59
2023/10/07 05:02:15;;;;;;;2.80;2.60;;;;;;;;;;5021881;28;20060;-58
2023/10/07 05:04:50;;;;;;;2.78;2.58;;;;;;;;;;5021568;28;20053;-59
2023/10/07 05:07:26;;;;;;;;;;;;;;;;;;5024538;28;20133;-58
2023/10/07 05:09:54;;;;;;;;;;;;;;;;;;5021680;28;19921;-59
2023/10/07 05:12:22;;;;;;;2.70;2.50;;;;;;;;;;5020929;28;19960;-59
2023/10/07 05:14:51;;;;;;;3.08;2.88;;;;;;;;;;5022838;28;20057;-59
2023/10/07 05:17:22;;;;;;;3.75;2.83;;;;;;;;;;5024157;28;20117;-59
2023/10/07 05:19:50;;;;;;;2.42;2.22;;;;;;;;;;5023151;28;20049;-59
2023/10/07 05:22:18;;;;;;;2.70;2.50;;;;;;;;;;5025460;28;20455;-59
2023/10/07 05:24:51;;;;;;;3.35;2.83;;;;;;;;;;5021283;28;20049;-58
2023/10/07 05:27:21;;;;;;;3.45;2.40;;;;;;;;;;5021096;28;20509;-58
2023/10/07 05:29:49;;;;;;;2.70;2.50;;;;;;;;;;5021183;28;20048;-59
2023/10/07 05:32:19;;;;;;;2.58;2.38;;;;;;;;;;5021493;28;20567;-59
2023/10/07 05:34:48;;;;;;;3.42;2.85;;;;;;;;;;5019118;28;20053;-58
2023/10/07 05:37:17;;;;;;;2.80;2.60;;;;;;;;;;5021602;28;20049;-60
2023/10/07 05:39:46;;;;;;;2.70;2.50;;;;;;;;;;5023583;28;20361;-58
2023/10/07 05:42:14;;;;;;;3.00;2.70;;;;;;;;;;5021690;28;20132;-59
2023/10/07 05:44:43;;;;;;;2.85;2.20;;;;;;;;;;5011751;28;20085;-59
2023/10/07 05:47:12;;;;;;;2.55;2.35;;;;;;;;;;5011655;28;20050;-59
2023/10/07 05:49:42;;;;;;;3.00;2.70;;;;;;;;;;5063300;28;20045;-59
2023/10/07 05:52:10;;;;;;;2.88;2.67;;;;;;;;;;5061585;28;20061;-60
2023/10/07 05:54:40;;;;;;;2.50;2.30;;;;;;;;;;5064712;28;20072;-60
2023/10/07 05:57:09;;;;;;;2.95;2.75;;;;;;;;;;5061783;28;20048;-61
2023/10/07 05:59:38;;;;;;;2.83;2.63;;;;;;;;;;5061324;28;20052;-59
2023/10/07 06:02:12;;;;;;;2.67;2.47;;;;;;;;;;5063400;28;20037;-60
2023/10/07 06:04:44;;;;;;;2.60;2.40;;;;;;;;;;5060693;28;20048;-59
2023/10/07 06:07:14;;;;;;;2.50;2.30;;;;;;;;;;5063078;28;20045;-60
2023/10/07 06:09:43;;;;;;;2.65;2.45;;;;;;;;;;5060650;28;20040;-60
2023/10/07 06:12:12;;;;;;;2.80;2.60;;;;;;;;;;5063339;28;20134;-60
2023/10/07 06:14:40;;;;;;;2.90;2.70;;;;;;;;;;5062660;28;20048;-60
2023/10/07 06:17:11;;;;;;;2.72;2.53;;;;;;;;;;5063499;28;20044;-60
2023/10/07 06:19:43;;;;;;;2.95;2.60;;;;;;;;;;5064690;28;20045;-59
2023/10/07 06:22:15;;;;;;;2.83;2.63;;;;;;;;;;5060527;28;20059;-60
2023/10/07 06:24:44;;;;;;;3.47;3.08;;;;;;;;;;5059779;28;20044;-59
2023/10/07 06:27:13;;;;;;;2.97;2.78;;;;;;;;;;5058964;28;20059;-60
2023/10/07 06:29:43;;;;;;;2.70;2.50;;;;;;;;;;5065573;28;20353;-59
2023/10/07 06:32:23;;;;;;;2.95;2.65;;;;;;;;;;5064409;28;20524;-59
2023/10/07 06:34:54;;;;;;;2.20;2.10;;;;;;;;;;5058804;28;20546;-59
2023/10/07 06:37:28;;;;;;;2.40;2.20;;;;;;;;;;5058369;28;20052;-61
2023/10/07 06:40:00;;;;;;;2.47;2.38;;;;;;;;;;5065025;28;20048;-60
2023/10/07 06:42:29;;;;;;;3.50;2.95;;;;;;;;;;5062578;28;20083;-59
2023/10/07 06:45:06;;;;;;;2.92;2.50;;;;;;;;;;5062721;28;20524;-61
2023/10/07 06:47:35;;;;;;;2.70;2.50;;;;;;;;;;5063333;28;20084;-60
2023/10/07 06:50:03;;;;;;;2.67;2.47;;;;;;;;;;5061095;28;20229;-59
2023/10/07 06:52:34;;;;;;;2.90;2.60;;;;;;;;;;5062829;28;20040;-59
2023/10/07 06:55:06;;;;;;;4.93;2.95;;;;;;;;;;5055442;28;20555;-59
2023/10/07 06:57:42;;;;;;;;;;;;;;;;;;5062400;28;20079;-60
2023/10/07 07:00:22;;;;;;;3.30;3.00;;;;;;;;;;5062769;28;19924;-59
2023/10/07 07:02:58;;;;;;;4.00;2.90;;;;;;;;;;5062939;28;20036;-59
2023/10/07 07:05:28;;;;;;;3.53;2.90;;;;;;;;;;5061779;28;20449;-59
2023/10/07 07:07:58;;;;;;;3.10;2.80;;;;;;;;;;5062326;28;20056;-60
2023/10/07 07:10:31;;;;;;;3.13;2.83;;;;;;;;;;5057767;28;20490;-60
2023/10/07 07:13:12;;;;;;;2.65;2.45;;;;;;;;;;5058207;28;20048;-60
2023/10/07 07:15:42;;;;;;;2.85;2.65;;;;;;;;;;5061713;28;20467;-59
2023/10/07 07:18:16;;;;;;;3.03;2.72;;;;;;;;;;5062679;28;20055;-60
2023/10/07 07:21:00;;;;;;;4.03;3.63;;;;;;;;;;5061991;28;20057;-59
2023/10/07 07:23:36;;;;;;;2.95;2.75;;;;;;;;;;5059302;28;20125;-60
2023/10/07 07:26:09;;;;;;;4.03;2.88;;;;;;;;;;5061531;28;20060;-60
2023/10/07 07:28:42;;;;;;;3.10;2.80;;;;;;;;;;5062099;28;20072;-59
2023/10/07 07:31:12;;;;;;;4.13;3.05;;;;;;;;;;5061681;28;20091;-59
2023/10/07 07:33:41;;;;;;;2.90;2.70;;;;;;;;;;5063077;28;20423;-59
2023/10/07 07:36:18;;;;;;;3.60;3.10;;;;;;;;;;5063789;28;20075;-60
2023/10/07 07:38:51;;;;;;;3.08;2.83;;;;;;;;;;5062717;28;20056;-59
2023/10/07 07:41:34;;;;;;;3.40;3.10;;;;;;;;;;5061738;28;20098;-60
2023/10/07 07:44:10;;;;;;;3.45;2.83;;;;;;;;;;5060049;28;20166;-60
2023/10/07 07:46:51;;;;;;;3.60;3.00;;;;;;;;;;5059437;28;20053;-59
2023/10/07 07:49:27;;;;;;;2.75;2.55;;;;;;;;;;5057695;28;20060;-60
2023/10/07 07:51:56;;;;;;;3.83;2.95;;;;;;;;;;5060407;28;20502;-59
2023/10/07 07:54:26;;;;;;;3.45;3.15;;;;;;;;;;5061665;28;20467;-59
2023/10/07 07:56:55;;;;;;;3.20;3.00;;;;;;;;;;5061558;28;20044;-61
2023/10/07 07:59:24;;;;;;;3.55;3.10;;;;;;;;;;5058003;28;20051;-61
2023/10/07 08:01:53;;;;;;;3.40;3.10;;;;;;;;;;5060552;28;20057;-61
2023/10/07 08:07:11;;;;;;;2.78;2.58;;;;;;;;;;5062116;28;20057;-60
2023/10/07 08:09:44;;;;;;;2.70;2.50;;;;;;;;;;5061770;28;20059;-60
2023/10/07 08:12:18;;;;;;;4.60;2.72;;;;;;;;;;5057745;28;20048;-63
2023/10/07 08:14:50;;;;;;;3.00;2.80;;;;;;;;;;5060649;28;20045;-60
2023/10/07 08:17:25;;;;;;;2.67;2.38;;;;;;;;;;5061180;28;20060;-61
2023/10/07 08:19:54;;;;;;;3.15;2.30;;;;;;;;;;5063298;28;20436;-62
2023/10/07 08:22:23;;;;;;;3.17;2.85;;;;;;;;;;5060792;28;20052;-65
2023/10/07 08:25:00;;;;;;;2.88;2.60;;;;;;;;;;5059209;28;20064;-63
2023/10/07 08:27:49;;;;;;;3.97;2.65;;;;;;;;;;5059065;28;20045;-63
2023/10/07 08:30:37;;;;;;;2.63;2.40;;;;;;;;;;5059221;28;20048;-65
2023/10/07 08:33:07;;;;;;;2.55;2.35;;;;;;;;;;5060314;28;20052;-65
2023/10/07 08:35:35;;;;;;;2.58;2.38;;;;;;;;;;5061787;28;20189;-67
2023/10/07 08:38:19;;;;;;;2.30;2.20;;;;;;;;;;5062683;28;20544;-66
2023/10/07 08:40:56;;;;;;;2.20;2.00;;;;;;;;;;5063439;28;20123;-67
2023/10/07 08:43:32;;;;;;;2.38;2.10;;;;;;;;;;5059675;28;20040;-66
2023/10/07 08:46:04;;;;;;;2.45;2.25;;;;;;;;;;5063338;28;20056;-67
2023/10/07 08:48:38;;;;;;;3.00;2.22;;;;;;;;;;5062984;28;20244;-67
2023/10/07 08:51:14;;;;;;;2.70;2.50;;;;;;;;;;5063253;28;20080;-67
2023/10/07 08:53:42;;;;;;;2.53;2.17;;;;;;;;;;5062031;28;20044;-67
2023/10/07 08:56:13;;;;;;;3.42;2.47;;;;;;;;;;5062378;28;20060;-68
2023/10/07 08:58:43;;;;;;;2.40;2.20;;;;;;;;;;5060777;28;20048;-67
2023/10/07 09:01:18;;;;;;;2.40;2.20;;;;;;;;;;5063868;28;20060;-67
2023/10/07 09:03:49;;;;;;;3.20;2.90;;;;;;;;;;5062807;28;20048;-68
2023/10/07 09:06:19;;;;;;;2.50;2.30;;;;;;;;;;5061513;28;20038;-67
2023/10/07 09:08:48;;;;;;;2.33;2.13;;;;;;;;;;5064065;28;20041;-67
2023/10/07 09:11:19;;;;;;;2.60;2.33;;;;;;;;;;5062030;28;20161;-67
2023/10/07 09:13:49;;;;;;;2.17;1.98;;;;;;;;;;5065495;28;20357;-68
2023/10/07 09:16:21;;;;;;;2.53;2.30;;;;;;;;;;5062082;28;20378;-69
2023/10/07 09:18:55;;;;;;;2.40;2.20;;;;;;;;;;5060299;28;20048;-68
2023/10/07 09:21:28;;;;;;;3.13;2.20;;;;;;;;;;5065525;28;20048;-69
2023/10/07 09:24:00;;;;;;;3.88;2.47;;;;;;;;;;5063189;28;20588;-68
2023/10/07 09:26:33;;;;;;;2.83;2.40;;;;;;;;;;5061116;28;20135;-68
2023/10/07 09:29:14;;;;;;;3.28;2.47;;;;;;;;;;5061035;28;20076;-68
2023/10/07 09:31:45;;;;;;;2.20;2.00;;;;;;;;;;5062614;28;20047;-67
2023/10/07 09:34:30;;;;;;;2.85;2.15;;;;;;;;;;5064833;28;20128;-69
2023/10/07 09:37:08;;;;;;;3.38;3.08;;;;;;;;;;5065518;28;20391;-69
2023/10/07 09:39:43;;;;;;;2.42;2.22;;;;;;;;;;5066290;28;20140;-69
2023/10/07 09:42:29;;;;;;;2.60;2.40;;;;;;;;;;5065312;28;20107;-66
2023/10/07 09:45:02;;;;;;;3.17;2.20;;;;;;;;;;5062495;28;20109;-67
2023/10/07 09:47:33;;;;;;;2.83;2.63;;;;;;;;;;5062567;28;20113;-67
2023/10/07 09:50:10;;;;;;;2.67;2.47;;;;;;;;;;5064734;28;20044;-68
2023/10/07 09:52:41;;;;;;;2.65;2.40;;;;;;;;;;5066051;28;20044;-67
2023/10/07 09:55:18;;;;;;;2.72;1.90;;;;;;;;;;5064352;28;20060;-68
2023/10/07 09:57:55;;;;;;;2.75;2.47;;;;;;;;;;5063932;28;20148;-67
2023/10/07 10:00:38;;;;;;;2.65;2.40;;;;;;;;;;5065050;28;20485;-68
2023/10/07 10:03:20;;;;;;;2.72;2.28;;;;;;;;;;5064959;28;20521;-72
2023/10/07 10:05:57;;;;;;;2.63;2.42;;;;;;;;;;5063995;28;20082;-68
2023/10/07 10:08:35;;;;;;;3.72;2.08;;;;;;;;;;5065812;28;20048;-68
2023/10/07 10:11:13;;;;;;;2.20;2.00;;;;;;;;;;5063700;28;20091;-68
2023/10/07 10:13:57;;;;;;;3.53;2.40;;;;;;;;;;5060166;28;20044;-72
2023/10/07 10:16:38;;;;;;;2.10;2.00;;;;;;;;;;5057803;28;20060;-69
2023/10/07 10:19:17;;;;;;;2.78;2.58;;;;;;;;;;5059683;28;20341;-70
2023/10/07 10:21:46;;;;;;;2.65;2.40;;;;;;;;;;5063703;28;20110;-69
2023/10/07 10:24:15;;;;;;;3.40;2.60;;;;;;;;;;5059003;28;20036;-65
2023/10/07 10:26:44;;;;;;;3.08;2.40;;;;;;;;;;5060653;28;20528;-65
2023/10/07 10:29:25;;;;;;;5.07;2.70;;;;;;;;;;5061883;28;20090;-65
2023/10/07 10:31:58;;;;;;;2.35;2.15;;;;;;;;;;5064221;28;20509;-65
2023/10/07 10:34:27;;;;;;;2.67;2.47;;;;;;;;;;5060717;28;20064;-65
2023/10/07 10:36:57;;;;;;;2.22;2.03;;;;;;;;;;5059719;28;20055;-65
2023/10/07 10:39:31;;;;;;;2.33;2.08;;;;;;;;;;5060621;28;20481;-65
2023/10/07 10:42:13;;;;;;;2.25;2.05;;;;;;;;;;5061693;28;20041;-65
2023/10/07 10:44:48;;;;;;;2.47;2.33;;;;;;;;;;5060938;28;20612;-66
2023/10/07 10:47:18;;;;;;;2.92;2.38;;;;;;;;;;5060322;28;20515;-66
2023/10/07 10:49:47;;;;;;;2.42;2.22;;;;;;;;;;5061646;28;20567;-65
2023/10/07 10:52:18;;;;;;;2.30;2.10;;;;;;;;;;5064668;28;20048;-65
2023/10/07 10:54:46;;;;;;;3.13;2.30;;;;;;;;;;5063203;28;20045;-65
2023/10/07 10:57:19;;;;;;;3.15;2.00;;;;;;;;;;5062846;28;20052;-66
2023/10/07 10:59:50;;;;;;;6.07;2.15;;;;;;;;;;5060984;28;20041;-65
2023/10/07 11:02:20;;;;;;;2.30;2.10;;;;;;;;;;5062180;28;20047;-65
2023/10/07 11:04:51;;;;;;;1.95;1.85;;;;;;;;;;5059197;28;20040;-66
2023/10/07 11:07:20;;;;;;;2.55;2.35;;;;;;;;;;5061023;28;20048;-65
2023/10/07 11:09:51;;;;;;;2.75;2.55;;;;;;;;;;5063201;28;20109;-66
2023/10/07 11:12:26;;;;;;;2.85;2.60;;;;;;;;;;5061082;28;20143;-66
2023/10/07 11:15:07;;;;;;;2.20;2.10;;;;;;;;;;5056895;28;20052;-61
2023/10/07 11:17:41;;;;;;;2.40;2.20;;;;;;;;;;5060048;28;20784;-62
2023/10/07 11:20:12;;;;;;;1.83;1.73;;;;;;;;;;5062607;28;20041;-62
2023/10/07 11:22:42;;;;;;;1.92;1.73;;;;;;;;;;5057871;28;20053;-61
2023/10/07 11:25:14;;;;;;;2.95;2.00;;;;;;;;;;5062114;28;20051;-64
2023/10/07 11:27:44;;;;;;;2.03;1.92;;;;;;;;;;5058894;28;20048;-61
2023/10/07 11:30:14;;;;;;;2.15;1.95;;;;;;;;;;5061794;28;20136;-60
2023/10/07 11:32:44;;;;;;;2.30;2.03;;;;;;;;;;5056738;28;20068;-61
2023/10/07 11:35:20;;;;;;;1.98;1.88;;;;;;;;;;5062981;28;20060;-61
2023/10/07 11:37:49;;;;;;;2.33;1.90;;;;;;;;;;5058731;28;20050;-60
2023/10/07 11:40:20;;;;;;;2.33;2.13;;;;;;;;;;5058936;28;20493;-60
2023/10/07 11:42:48;;;;;;;1.75;1.65;;;;;;;;;;5062177;28;20563;-61
2023/10/07 11:45:22;;;;;;;1.90;1.80;;;;;;;;;;5057465;28;20060;-63
2023/10/07 11:47:50;;;;;;;1.95;1.77;;;;;;;;;;5058128;28;20159;-60
2023/10/07 11:50:23;;;;;;;1.92;1.73;;;;;;;;;;5058078;28;20040;-62
2023/10/07 11:52:52;;;;;;;1.90;1.80;;;;;;;;;;5061882;28;20044;-63
2023/10/07 11:55:21;;;;;;;2.58;1.90;;;;;;;;;;5059913;28;20081;-59
2023/10/07 11:57:49;;;;;;;2.03;1.90;;;;;;;;;;5062445;28;20692;-60
2023/10/07 12:00:27;;;;;;;2.70;1.90;;;;;;;;;;5055235;28;20106;-61
2023/10/07 12:02:57;;;;;;;4.35;2.00;;;;;;;;;;5057358;28;20091;-60
2023/10/07 12:05:27;;;;;;;2.38;2.00;;;;;;;;;;5059266;28;20409;-59
2023/10/07 12:07:59;;;;;;;2.25;2.13;;;;;;;;;;5065461;28;20139;-63
2023/10/07 12:10:28;;;;;;;2.03;1.92;;;;;;;;;;5059323;28;20304;-60
2023/10/07 12:12:58;;;;;;;2.17;2.08;;;;;;;;;;5061275;28;20548;-60
2023/10/07 12:15:29;;;;;;;2.55;2.35;;;;;;;;;;5057975;28;20497;-61
2023/10/07 12:17:57;;;;;;;2.22;2.03;;;;;;;;;;5062875;28;20052;-61
2023/10/07 12:20:28;;;;;;;2.10;2.00;;;;;;;;;;5054599;28;20047;-64
2023/10/07 12:22:57;;;;;;;2.10;1.85;;;;;;;;;;5060258;28;20124;-63
2023/10/07 12:25:25;;;;;;;1.85;1.75;;;;;;;;;;5056626;28;20056;-60
2023/10/07 12:27:53;;;;;;;2.10;2.00;;;;;;;;;;5062474;28;20130;-60
2023/10/07 12:30:22;;;;;;;2.05;1.88;;;;;;;;;;5057778;28;20312;-60
2023/10/07 12:32:52;;;;;;;1.80;1.70;;;;;;;;;;5060661;28;20106;-60
2023/10/07 12:35:21;;;;;;;3.10;2.10;;;;;;;;;;5056195;28;20045;-62
2023/10/07 12:37:51;;;;;;;2.22;1.73;;;;;;;;;;5064254;28;20601;-59
2023/10/07 12:40:20;;;;;;;2.65;1.70;;;;;;;;;;5055508;28;20053;-60
2023/10/07 12:42:50;;;;;;;2.95;2.05;;;;;;;;;;5064524;28;20059;-61
2023/10/07 12:45:20;;;;;;;2.30;2.10;;;;;;;;;;5062897;28;20057;-61
2023/10/07 12:47:51;;;;;;;2.08;1.88;;;;;;;;;;5063280;28;20125;-62
2023/10/07 12:50:24;;;;;;;1.90;1.80;;;;;;;;;;5062725;28;20095;-61
2023/10/07 12:52:53;;;;;;;2.08;1.88;;;;;;;;;;5065481;28;20079;-60
2023/10/07 12:55:21;;;;;;;3.67;1.90;;;;;;;;;;5060854;28;20054;-62
2023/10/07 12:57:51;;;;;;;2.45;1.60;;;;;;;;;;5066123;28;20463;-62
2023/10/07 13:00:22;;;;;;;2.03;1.80;;;;;;;;;;5064904;28;20090;-62
2023/10/07 13:02:50;;;;;;;1.88;1.77;;;;;;;;;;5068714;28;20045;-62
2023/10/07 13:05:19;;;;;;;1.95;1.85;;;;;;;;;;5062973;28;20040;-62
2023/10/07 13:07:49;;;;;;;2.72;2.10;;;;;;;;;;5067101;28;20048;-61
2023/10/07 13:10:18;;;;;;;1.98;1.70;;;;;;;;;;5061133;28;20374;-61
2023/10/07 13:12:49;;;;;;;2.08;1.85;;;;;;;;;;5067317;28;20044;-63
2023/10/07 13:15:18;;;;;;;2.50;1.80;;;;;;;;;;5061320;28;20072;-62
2023/10/07 13:17:47;;;;;;;2.28;2.08;;;;;;;;;;5066276;28;20374;-61
2023/10/07 13:20:20;;;;;;;2.05;1.95;;;;;;;;;;5060096;28;20053;-60
2023/10/07 13:22:50;;;;;;;1.80;1.70;;;;;;;;;;5066022;28;20432;-62
2023/10/07 13:25:19;;;;;;;2.65;1.58;;;;;;;;;;5062744;28;20057;-62
2023/10/07 13:27:48;;;;;;;2.35;2.15;;;;;;;;;;5066541;28;20045;-62
2023/10/07 13:30:17;;;;;;;1.80;1.70;;;;;;;;;;5063097;28;20052;-60
2023/10/07 13:32:46;;;;;;;3.50;1.90;;;;;;;;;;5064395;28;20121;-60
2023/10/07 13:35:15;;;;;;;1.80;1.70;;;;;;;;;;5061290;28;20057;-62
2023/10/07 13:37:44;;;;;;;1.92;1.70;;;;;;;;;;5068082;28;20049;-60
2023/10/07 13:40:16;;;;;;;2.15;1.95;;;;;;;;;;5062712;28;20049;-62
2023/10/07 13:42:47;;;;;;;2.10;1.90;;;;;;;;;;5064298;28;20508;-64
2023/10/07 13:45:15;;;;;;;3.28;1.70;;;;;;;;;;5063503;28;20060;-60
2023/10/07 13:47:44;;;;;;;2.25;2.05;;;;;;;;;;5066145;28;20044;-61
2023/10/07 13:50:20;;;;;;;2.05;1.95;;;;;;;;;;5056374;28;20045;-61
2023/10/07 13:52:58;;;;;;;3.40;1.88;;;;;;;;;;5063425;28;20056;-59
2023/10/07 13:55:54;;;;;;;1.90;1.80;;;;;;;;;;5057587;28;20551;-61
2023/10/07 13:58:22;;;;;;;1.83;1.67;;;;;;;;;;5060993;28;20100;-60
2023/10/07 14:00:53;;;;;;;2.17;1.90;;;;;;;;;;5062722;28;20040;-62
2023/10/07 14:03:26;;;;;;;1.80;1.70;;;;;;;;;;5063665;28;20044;-61
2023/10/07 14:05:56;;;;;;;1.90;1.80;;;;;;;;;;5063299;28;20048;-62
2023/10/07 14:08:28;;;;;;;1.95;1.85;;;;;;;;;;5060913;28;20045;-63
2023/10/07 14:10:59;;;;;;;1.85;1.75;;;;;;;;;;5058909;28;20504;-62
2023/10/07 14:13:32;;;;;;;2.60;2.10;;;;;;;;;;5060057;28;20053;-60
2023/10/07 14:16:01;;;;;;;2.30;1.60;;;;;;;;;;5063482;28;20053;-60
2023/10/07 14:18:46;;;;;;;1.80;1.70;;;;;;;;;;5059583;28;20061;-60
2023/10/07 14:21:16;;;;;;;1.85;1.75;;;;;;;;;;5057733;28;20050;-60
2023/10/07 14:23:45;;;;;;;2.22;2.03;;;;;;;;;;5058578;28;20158;-60
2023/10/07 14:26:15;;;;;;;2.10;1.70;;;;;;;;;;5061655;28;20497;-61
2023/10/07 14:28:44;;;;;;;2.30;2.10;;;;;;;;;;5058018;28;20041;-59
2023/10/07 14:31:16;;;;;;;2.60;2.40;;;;;;;;;;5059938;28;20049;-59
2023/10/07 14:33:46;;;;;;;1.85;1.70;;;;;;;;;;5060905;28;20071;-59
2023/10/07 14:36:15;;;;;;;2.15;1.95;;;;;;;;;;5062174;28;20051;-59
2023/10/07 14:38:45;;;;;;;1.88;1.77;;;;;;;;;;5061838;28;20045;-59
2023/10/07 14:41:13;;;;;;;2.97;2.10;;;;;;;;;;5060897;28;20040;-60
2023/10/07 14:43:44;;;;;;;3.35;1.90;;;;;;;;;;5061460;28;20048;-60
2023/10/07 14:46:12;;;;;;;2.20;2.00;;;;;;;;;;5062991;28;20050;-59
2023/10/07 14:48:42;;;;;;;2.28;2.08;;;;;;;;;;5058447;28;20504;-59
2023/10/07 14:51:11;;;;;;;2.90;2.10;;;;;;;;;;5065157;28;20056;-64
2023/10/07 14:53:39;;;;;;;2.25;2.05;;;;;;;;;;5059101;28;20053;-60
2023/10/07 14:56:11;;;;;;;2.20;2.03;;;;;;;;;;5062585;28;20131;-61
2023/10/07 14:58:40;;;;;;;2.45;2.25;;;;;;;;;;5061857;28;20051;-60
2023/10/07 15:01:12;;;;;;;3.47;2.15;;;;;;;;;;5062840;28;20059;-60
2023/10/07 15:03:41;;;;;;;2.75;2.38;;;;;;;;;;5062146;28;20041;-58
2023/10/07 15:06:11;;;;;;;1.98;1.88;;;;;;;;;;5059513;28;20154;-60
2023/10/07 15:08:39;;;;;;;2.20;2.00;;;;;;;;;;5057519;28;20057;-60
2023/10/07 15:11:08;;;;;;;4.47;2.03;;;;;;;;;;5063144;28;20460;-61
2023/10/07 15:13:37;;;;;;;2.35;2.10;;;;;;;;;;5061079;28;20102;-60
2023/10/07 15:16:11;;;;;;;3.03;2.30;;;;;;;;;;5062673;28;20048;-59
2023/10/07 15:18:41;;;;;;;1.98;1.88;;;;;;;;;;5061766;28;20056;-61
2023/10/07 15:21:11;;;;;;;6.13;2.22;;;;;;;;;;5061637;28;20052;-59
2023/10/07 15:23:40;;;;;;;1.98;1.88;;;;;;;;;;5059883;28;20053;-60
2023/10/07 15:26:12;;;;;;;2.25;2.05;;;;;;;;;;5061125;28;20444;-60